Time;durP1;ratioP1;P1;durP2;ratioP2;P2;SDS_P1;SDS_P2;PMS_P1;PMS_P2;Temp;Humidity;BMP_temperature;BMP_pressure;BME280_temperature;BME280_humidity;BME280_pressure;Samples;Min_cycle;Max_cycle;Signal;HPM_P1;HPM_P2
2022/10/25 00:02:24;;;;;;;5.35;3.10;;;;;;;13.71;100.00;100702.25;5006781;28;20257;-53
2022/10/25 00:04:51;;;;;;;3.15;2.85;;;;;;;13.71;100.00;100707.53;5003579;28;20729;-52
2022/10/25 00:07:18;;;;;;;4.85;3.20;;;;;;;13.70;100.00;100697.88;5014593;28;20248;-52
2022/10/25 00:09:45;;;;;;;3.95;3.30;;;;;;;13.64;100.00;100692.69;5023567;28;20279;-53
2022/10/25 00:12:11;;;;;;;5.40;2.72;;;;;;;13.62;100.00;100691.84;5012560;28;20244;-52
2022/10/25 00:14:40;;;;;;;5.78;3.47;;;;;;;13.66;100.00;100693.53;5019494;28;20255;-52
2022/10/25 00:17:07;;;;;;;6.53;3.53;;;;;;;13.61;100.00;100690.94;5025735;28;20228;-52
2022/10/25 00:19:33;;;;;;;5.43;3.05;;;;;;;13.52;100.00;100696.38;5023960;28;20351;-54
2022/10/25 00:22:00;;;;;;;5.75;2.60;;;;;;;13.53;100.00;100691.97;5011751;28;20253;-53
2022/10/25 00:24:27;;;;;;;14.05;4.63;;;;;;;13.55;100.00;100700.75;5024423;28;20295;-53
2022/10/25 00:26:55;;;;;;;5.68;2.72;;;;;;;13.49;100.00;100696.41;5011781;28;20236;-53
2022/10/25 00:29:21;;;;;;;3.38;3.08;;;;;;;13.50;100.00;100687.59;5019705;28;20719;-53
2022/10/25 00:31:50;;;;;;;4.43;3.15;;;;;;;13.54;100.00;100694.56;5022752;28;20232;-52
2022/10/25 00:34:16;;;;;;;5.45;3.22;;;;;;;13.41;100.00;100686.84;5013473;28;20312;-51
2022/10/25 00:36:43;;;;;;;10.52;3.58;;;;;;;13.42;100.00;100684.19;5002064;28;20229;-52
2022/10/25 00:39:10;;;;;;;6.72;2.92;;;;;;;13.40;100.00;100698.28;5003705;28;20229;-51
2022/10/25 00:41:36;;;;;;;7.45;3.28;;;;;;;13.38;100.00;100692.19;5003150;28;20241;-52
2022/10/25 00:44:40;;;;;;;6.40;3.22;;;;;;;13.45;100.00;100699.13;5012388;28;20245;-52
2022/10/25 00:47:15;;;;;;;5.30;2.75;;;;;;;13.35;100.00;100698.38;5001814;28;20232;-52
2022/10/25 00:49:43;;;;;;;8.48;3.15;;;;;;;13.36;100.00;100693.06;5016669;28;20232;-52
2022/10/25 00:52:10;;;;;;;5.38;3.13;;;;;;;13.33;100.00;100701.00;5018975;28;20251;-52
2022/10/25 00:54:40;;;;;;;6.13;3.67;;;;;;;13.34;100.00;100702.78;5023566;28;20252;-53
2022/10/25 00:57:12;;;;;;;4.05;2.95;;;;;;;13.32;100.00;100704.53;5023029;28;20638;-51
2022/10/25 00:59:39;;;;;;;5.53;3.00;;;;;;;13.30;100.00;100698.44;5016321;28;20225;-52
2022/10/25 01:02:06;;;;;;;6.75;3.25;;;;;;;13.26;100.00;100704.63;4998477;28;20233;-55
2022/10/25 01:04:34;;;;;;;9.68;4.35;;;;;;;13.26;100.00;100703.75;5006522;28;20299;-53
2022/10/25 01:07:01;;;;;;;9.23;3.22;;;;;;;13.34;100.00;100705.41;5024466;28;20224;-53
2022/10/25 01:09:30;;;;;;;7.00;3.80;;;;;;;13.34;100.00;100702.78;5021397;28;20233;-53
2022/10/25 01:12:02;;;;;;;5.30;3.50;;;;;;;13.35;100.00;100693.97;5013934;28;20248;-52
2022/10/25 01:14:30;;;;;;;5.65;3.03;;;;;;;13.34;100.00;100694.84;5016619;28;20241;-53
2022/10/25 01:17:04;;;;;;;6.82;3.17;;;;;;;13.35;100.00;100701.00;5021658;28;20318;-52
2022/10/25 01:19:50;;;;;;;5.97;3.25;;;;;;;13.32;100.00;100698.41;5019421;28;20232;-52
2022/10/25 01:22:36;;;;;;;5.72;3.55;;;;;;;13.31;100.00;100697.53;5003981;28;20319;-53
2022/10/25 01:25:32;;;;;;;5.10;3.50;;;;;;;13.30;100.00;100690.53;5015798;28;20224;-52
2022/10/25 01:28:07;;;;;;;9.80;3.45;;;;;;;13.35;100.00;100688.69;5002559;28;20225;-53
2022/10/25 01:31:00;;;;;;;7.15;2.85;;;;;;;13.40;100.00;100690.38;5013512;28;20316;-53
2022/10/25 01:33:31;;;;;;;3.95;3.03;;;;;;;13.42;100.00;100701.78;5004284;28;20239;-53
2022/10/25 01:36:03;;;;;;;7.10;3.10;;;;;;;13.59;100.00;100697.16;5022485;28;20248;-53
2022/10/25 01:38:38;;;;;;;7.25;3.38;;;;;;;13.39;100.00;100700.06;5020905;28;20232;-54
2022/10/25 01:41:15;;;;;;;6.97;3.58;;;;;;;13.25;100.00;100697.59;4991994;28;20328;-51
2022/10/25 01:43:49;;;;;;;9.15;3.70;;;;;;;13.16;100.00;100695.03;5020648;28;20273;-52
2022/10/25 01:46:21;;;;;;;5.30;3.95;;;;;;;13.11;100.00;100700.38;5013556;28;20232;-53
2022/10/25 01:48:51;;;;;;;5.13;3.22;;;;;;;13.07;100.00;100693.41;5019020;28;20581;-52
2022/10/25 01:51:18;;;;;;;8.13;4.47;;;;;;;13.13;100.00;100687.19;5021036;28;20243;-52
2022/10/25 01:53:50;;;;;;;5.00;4.40;;;;;;;13.21;100.00;100690.59;5018745;28;20233;-51
2022/10/25 01:56:25;;;;;;;6.95;3.33;;;;;;;13.13;100.00;100679.28;5021792;28;20783;-53
2022/10/25 01:59:24;;;;;;;6.85;3.45;;;;;;;13.16;100.00;100684.50;5005089;28;20220;-53
2022/10/25 02:02:01;;;;;;;6.70;3.33;;;;;;;13.18;100.00;100685.34;5010205;28;20224;-53
2022/10/25 02:04:39;;;;;;;6.75;3.33;;;;;;;13.21;100.00;100690.59;5020268;28;20248;-52
2022/10/25 02:07:08;;;;;;;8.15;3.78;;;;;;;13.26;100.00;100694.06;5011990;28;20336;-53
2022/10/25 02:09:39;;;;;;;7.25;2.80;;;;;;;13.14;100.00;100688.94;5020554;28;20240;-53
2022/10/25 02:12:08;;;;;;;6.50;3.55;;;;;;;13.18;100.00;100695.91;5020304;28;20239;-53
2022/10/25 02:14:38;;;;;;;5.40;3.38;;;;;;;13.21;100.00;100690.59;5019326;28;20767;-53
2022/10/25 02:17:10;;;;;;;8.70;3.70;;;;;;;13.29;100.00;100694.03;5007335;28;20247;-53
2022/10/25 02:19:40;;;;;;;4.53;3.40;;;;;;;13.26;100.00;100695.84;5012683;28;20229;-53
2022/10/25 02:22:21;;;;;;;11.48;3.28;;;;;;;13.24;100.00;100695.88;5018387;28;20252;-53
2022/10/25 02:24:49;;;;;;;8.75;3.13;;;;;;;13.29;100.00;100693.16;5022816;28;20923;-51
2022/10/25 02:27:17;;;;;;;5.15;2.55;;;;;;;13.29;100.00;100701.94;5024140;28;20253;-53
2022/10/25 02:29:45;;;;;;;5.80;2.47;;;;;;;13.27;100.00;100706.38;5025097;28;20232;-52
2022/10/25 02:32:14;;;;;;;4.20;2.65;;;;;;;13.36;100.00;100698.34;5024899;28;21146;-52
2022/10/25 02:34:41;;;;;;;8.18;3.10;;;;;;;13.38;100.00;100705.38;5022921;28;20443;-53
2022/10/25 02:37:08;;;;;;;6.18;3.08;;;;;;;13.38;100.00;100700.09;4998772;28;20244;-53
2022/10/25 02:39:35;;;;;;;4.72;3.20;;;;;;;13.42;100.00;100694.75;5014416;28;20236;-53
2022/10/25 02:42:02;;;;;;;5.50;3.22;;;;;;;13.48;100.00;100702.59;5018195;28;20720;-53
2022/10/25 02:44:29;;;;;;;6.03;2.78;;;;;;;13.45;100.00;100699.13;5007532;28;20291;-52
2022/10/25 02:46:56;;;;;;;7.88;2.97;;;;;;;13.52;100.00;100701.66;5022488;28;20248;-52
2022/10/25 02:49:24;;;;;;;7.68;2.53;;;;;;;13.46;100.00;100703.50;5019504;28;20236;-53
2022/10/25 02:51:51;;;;;;;4.07;3.25;;;;;;;13.53;100.00;100707.78;5024558;28;20639;-54
2022/10/25 02:54:18;;;;;;;6.20;2.67;;;;;;;13.56;100.00;100705.13;5024186;28;20283;-51
2022/10/25 02:56:45;;;;;;;3.88;2.47;;;;;;;13.52;100.00;100711.34;5023803;28;20232;-51
2022/10/25 02:59:12;;;;;;;6.05;3.08;;;;;;;13.59;100.00;100707.72;5014399;28;20241;-53
2022/10/25 03:01:38;;;;;;;11.75;3.13;;;;;;;13.53;100.00;100713.06;5013996;28;20241;-55
2022/10/25 03:04:05;;;;;;;4.15;2.83;;;;;;;13.56;100.00;100716.53;5009677;28;20286;-52
2022/10/25 03:06:33;;;;;;;7.38;3.35;;;;;;;13.51;100.00;100714.84;5022447;28;20236;-54
2022/10/25 03:09:00;;;;;;;5.88;2.63;;;;;;;13.48;100.00;100714.88;4995694;28;20221;-52
2022/10/25 03:11:28;;;;;;;4.40;2.42;;;;;;;13.43;100.00;100716.72;5023666;28;20314;-52
2022/10/25 03:13:54;;;;;;;7.20;2.90;;;;;;;13.56;100.00;100720.94;5020446;28;20228;-52
2022/10/25 03:16:21;;;;;;;7.13;2.85;;;;;;;13.51;100.00;100721.03;5023258;28;20232;-52
2022/10/25 03:18:48;;;;;;;3.90;2.95;;;;;;;13.53;100.00;100723.63;5022232;28;20239;-53
2022/10/25 03:21:16;;;;;;;7.32;2.88;;;;;;;13.55;100.00;100728.00;5020557;28;20236;-53
2022/10/25 03:23:44;;;;;;;5.35;3.28;;;;;;;13.46;100.00;100725.47;5010773;28;20237;-52
2022/10/25 03:26:11;;;;;;;6.88;2.75;;;;;;;13.45;100.00;100723.72;5024120;28;20236;-52
2022/10/25 03:28:38;;;;;;;4.28;2.47;;;;;;;13.52;100.00;100728.03;5023917;28;20752;-52
2022/10/25 03:31:11;;;;;;;4.72;2.08;;;;;;;13.59;100.00;100728.81;5023214;28;20319;-52
2022/10/25 03:33:38;;;;;;;8.13;2.90;;;;;;;13.51;100.00;100726.28;5003334;28;20244;-52
2022/10/25 03:36:05;;;;;;;7.32;2.67;;;;;;;13.54;100.00;100738.53;5012236;28;20980;-52
2022/10/25 03:38:32;;;;;;;4.63;2.65;;;;;;;13.63;100.00;100735.81;5019105;28;20982;-52
2022/10/25 03:41:00;;;;;;;3.78;2.28;;;;;;;13.60;100.00;100744.63;5020930;28;20337;-52
2022/10/25 03:43:30;;;;;;;3.53;2.55;;;;;;;13.58;100.00;100745.53;5012520;28;20230;-52
2022/10/25 03:46:06;;;;;;;5.88;2.03;;;;;;;13.61;100.00;100743.72;5013896;28;20311;-52
2022/10/25 03:48:32;;;;;;;3.38;2.33;;;;;;;13.58;100.00;100740.25;5019914;28;20240;-51
2022/10/25 03:51:00;;;;;;;3.80;2.45;;;;;;;13.63;100.00;100750.75;5009552;28;20232;-52
2022/10/25 03:53:26;;;;;;;5.82;2.70;;;;;;;13.73;100.00;100753.25;5019343;28;20773;-53
2022/10/25 03:55:53;;;;;;;6.75;2.67;;;;;;;13.66;100.00;100756.88;4995677;28;20226;-51
2022/10/25 03:58:21;;;;;;;5.72;2.10;;;;;;;13.69;100.00;100753.28;4998138;28;21431;-52
2022/10/25 04:00:48;;;;;;;6.22;2.35;;;;;;;13.67;100.00;100753.31;5010652;28;20228;-52
2022/10/25 04:03:15;;;;;;;2.10;1.45;;;;;;;13.64;100.00;100763.91;4994167;28;20256;-52
2022/10/25 04:05:42;;;;;;;4.22;2.05;;;;;;;13.70;100.00;100769.13;5003550;28;20237;-52
2022/10/25 04:08:08;;;;;;;5.53;1.52;;;;;;;13.87;100.00;100760.97;5009024;28;20734;-56
2022/10/25 04:10:35;;;;;;;5.07;1.52;;;;;;;13.78;100.00;100763.72;5022456;28;20236;-52
2022/10/25 04:13:02;;;;;;;4.05;1.70;;;;;;;13.76;100.00;100762.88;5021673;28;20236;-53
2022/10/25 04:15:31;;;;;;;1.88;1.73;;;;;;;13.70;100.00;100761.22;5022295;28;20232;-53
2022/10/25 04:17:58;;;;;;;7.75;1.80;;;;;;;13.59;100.00;100760.47;5017208;28;20785;-52
2022/10/25 04:20:27;;;;;;;3.17;1.33;;;;;;;13.59;100.00;100765.75;5019513;28;20252;-53
2022/10/25 04:22:55;;;;;;;4.75;1.55;;;;;;;13.61;100.00;100761.31;5017709;28;20248;-52
2022/10/25 04:25:22;;;;;;;2.83;1.60;;;;;;;13.66;100.00;100772.69;5022818;28;20231;-52
2022/10/25 04:27:49;;;;;;;3.60;1.27;;;;;;;13.67;100.00;100763.88;5022450;28;20238;-52
2022/10/25 04:30:18;;;;;;;3.47;1.90;;;;;;;13.63;100.00;100766.59;5017952;28;20331;-51
2022/10/25 04:32:47;;;;;;;2.47;1.08;;;;;;;13.89;100.00;100768.88;5013980;28;20299;-53
2022/10/25 04:35:14;;;;;;;2.63;1.55;;;;;;;13.76;100.00;100769.03;5018305;28;20235;-52
2022/10/25 04:37:41;;;;;;;1.38;1.08;;;;;;;13.72;100.00;100766.44;5020791;28;20436;-52
2022/10/25 04:40:09;;;;;;;2.05;1.23;;;;;;;13.76;100.00;100769.03;5001377;28;20571;-51
2022/10/25 04:42:36;;;;;;;1.55;1.20;;;;;;;13.79;100.00;100763.72;5021019;28;20324;-53
2022/10/25 04:45:03;;;;;;;1.67;1.10;;;;;;;13.71;100.00;100770.00;5012700;28;20260;-53
2022/10/25 04:47:31;;;;;;;3.38;1.50;;;;;;;13.63;100.00;100766.59;5011962;28;20256;-52
2022/10/25 04:49:59;;;;;;;3.95;1.77;;;;;;;13.64;100.00;100763.91;5012309;28;20256;-54
2022/10/25 04:52:28;;;;;;;3.20;1.42;;;;;;;13.63;100.00;100771.88;5010275;28;20232;-54
2022/10/25 04:54:55;;;;;;;3.97;1.48;;;;;;;13.60;100.00;100778.03;5022240;28;20235;-52
2022/10/25 04:57:22;;;;;;;4.13;1.08;;;;;;;13.56;100.00;100765.78;5012489;28;20241;-52
2022/10/25 04:59:49;;;;;;;5.05;1.42;;;;;;;13.59;100.00;100765.75;5019325;28;20225;-54
2022/10/25 05:02:16;;;;;;;6.18;1.77;;;;;;;13.49;100.00;100769.41;5020182;28;20287;-52
2022/10/25 05:04:43;;;;;;;2.28;1.33;;;;;;;13.54;100.00;100767.56;5019747;28;20356;-53
2022/10/25 05:07:11;;;;;;;1.83;1.30;;;;;;;13.46;100.00;100770.31;5018664;28;20245;-53
2022/10/25 05:09:38;;;;;;;3.55;1.58;;;;;;;13.43;100.00;100769.47;5022024;28;20507;-52
2022/10/25 05:12:06;;;;;;;2.75;1.45;;;;;;;13.39;100.00;100773.91;5020996;28;20236;-52
2022/10/25 05:14:33;;;;;;;3.25;1.58;;;;;;;13.40;100.00;100770.38;5020919;28;20236;-51
2022/10/25 05:17:00;;;;;;;5.40;1.88;;;;;;;13.39;100.00;100770.41;5022264;28;20244;-52
2022/10/25 05:19:27;;;;;;;2.05;1.52;;;;;;;13.35;100.00;100773.06;5021419;28;20240;-52
2022/10/25 05:21:54;;;;;;;5.90;1.40;;;;;;;13.30;100.00;100774.00;5000639;28;20230;-53
2022/10/25 05:24:26;;;;;;;5.15;1.77;;;;;;;13.29;100.00;100774.91;5021561;28;20244;-52
2022/10/25 05:26:53;;;;;;;3.80;1.70;;;;;;;13.25;100.00;100763.50;5014335;28;20258;-53
2022/10/25 05:29:20;;;;;;;3.88;1.70;;;;;;;13.22;100.00;100775.81;5022244;28;20232;-52
2022/10/25 05:31:47;;;;;;;3.15;1.70;;;;;;;13.23;100.00;100772.28;5016478;28;20352;-53
2022/10/25 05:34:14;;;;;;;6.07;2.22;;;;;;;13.17;100.00;100775.88;5007119;28;20237;-51
2022/10/25 05:36:41;;;;;;;5.47;2.10;;;;;;;13.21;100.00;100779.38;4998314;28;20241;-53
2022/10/25 05:39:08;;;;;;;3.50;1.95;;;;;;;13.13;100.00;100782.09;5014285;28;20236;-52
2022/10/25 05:41:36;;;;;;;5.93;1.75;;;;;;;13.13;100.00;100784.72;5005480;28;20718;-51
2022/10/25 05:44:03;;;;;;;4.53;2.13;;;;;;;13.12;100.00;100782.97;5010030;28;20248;-53
2022/10/25 05:46:30;;;;;;;3.70;2.28;;;;;;;13.08;100.00;100784.75;5017436;28;20365;-52
2022/10/25 05:48:58;;;;;;;5.25;2.30;;;;;;;13.13;100.00;100795.28;5013737;28;20646;-52
2022/10/25 05:51:27;;;;;;;3.33;1.63;;;;;;;13.12;100.00;100791.72;5022164;28;20233;-51
2022/10/25 05:53:55;;;;;;;8.10;2.80;;;;;;;13.05;100.00;100799.72;5025466;28;20326;-52
2022/10/25 05:56:23;;;;;;;4.88;1.95;;;;;;;12.99;100.00;100805.09;5024320;28;20231;-52
2022/10/25 05:58:51;;;;;;;6.00;2.60;;;;;;;13.07;100.00;100804.09;5025464;28;20232;-53
2022/10/25 06:01:20;;;;;;;4.07;2.20;;;;;;;13.00;100.00;100823.50;5019400;28;20711;-53
2022/10/25 06:03:48;;;;;;;7.63;1.88;;;;;;;13.04;100.00;100819.94;5001704;28;20252;-53
2022/10/25 06:06:15;;;;;;;3.97;1.95;;;;;;;12.98;100.00;100822.63;5007047;28;20318;-53
2022/10/25 06:08:42;;;;;;;3.83;1.85;;;;;;;12.98;100.00;100822.63;5005913;28;20352;-52
2022/10/25 06:11:19;;;;;;;4.35;2.30;;;;;;;12.92;100.00;100825.34;5013716;28;20233;-53
2022/10/25 06:13:46;;;;;;;4.57;2.40;;;;;;;12.99;100.00;100821.78;5002561;28;20233;-53
2022/10/25 06:16:17;;;;;;;2.58;1.60;;;;;;;13.11;100.00;100833.94;5001530;28;20236;-52
2022/10/25 06:18:44;;;;;;;4.15;1.65;;;;;;;13.13;100.00;100824.28;4999217;28;20230;-52
2022/10/25 06:21:13;;;;;;;17.20;1.92;;;;;;;13.08;100.00;100837.47;4996715;28;20735;-52
2022/10/25 06:23:41;;;;;;;4.78;1.52;;;;;;;13.17;100.00;100839.16;4997548;28;20899;-52
2022/10/25 06:26:09;;;;;;;1.52;1.33;;;;;;;13.18;100.00;100832.13;5011381;28;20232;-52
2022/10/25 06:29:01;;;;;;;3.35;1.30;;;;;;;13.15;100.00;100846.19;5013085;28;20290;-52
2022/10/25 06:31:33;;;;;;;3.63;1.80;;;;;;;13.22;100.00;100850.53;5010896;28;20228;-52
2022/10/25 06:34:01;;;;;;;3.63;2.17;;;;;;;13.33;100.00;100843.41;5020858;28;20255;-52
2022/10/25 06:36:29;;;;;;;2.55;1.55;;;;;;;13.34;100.00;100846.94;5019347;28;20773;-52
2022/10/25 06:38:57;;;;;;;1.95;1.70;;;;;;;13.32;100.00;100846.94;5014001;28;20235;-52
2022/10/25 06:41:26;;;;;;;5.47;1.50;;;;;;;13.39;100.00;100846.88;5008427;28;20229;-53
2022/10/25 06:43:53;;;;;;;3.58;1.42;;;;;;;13.40;100.00;100861.81;5005517;28;20237;-52
2022/10/25 06:46:22;;;;;;;2.42;1.23;;;;;;;13.46;100.00;100853.84;5000502;28;20625;-53
2022/10/25 06:48:57;;;;;;;3.88;1.52;;;;;;;13.46;100.00;100854.69;5019448;28;20236;-52
2022/10/25 06:51:31;;;;;;;3.33;1.85;;;;;;;13.55;100.00;100864.28;5019744;28;20235;-53
2022/10/25 06:53:59;;;;;;;1.33;1.23;;;;;;;13.49;100.00;100869.63;5021322;28;20838;-52
2022/10/25 06:56:27;;;;;;;7.10;1.80;;;;;;;13.54;100.00;100871.31;5011009;28;20228;-52
2022/10/25 06:58:54;;;;;;;2.15;1.25;;;;;;;13.66;100.00;100878.22;5015036;28;20582;-52
2022/10/25 07:01:22;;;;;;;2.50;1.50;;;;;;;13.65;100.00;100876.47;5021184;28;20228;-52
2022/10/25 07:03:52;;;;;;;1.10;1.00;;;;;;;13.78;100.00;100883.34;5024449;28;20722;-54
2022/10/25 07:06:22;;;;;;;2.72;1.38;;;;;;;13.90;100.00;100886.72;5010900;28;20253;-52
2022/10/25 07:08:53;;;;;;;1.90;1.20;;;;;;;13.77;100.00;100886.91;5013851;28;20763;-52
2022/10/25 07:11:20;;;;;;;2.28;1.30;;;;;;;13.64;100.00;100890.56;4998761;28;20734;-52
2022/10/25 07:13:47;;;;;;;1.23;0.98;;;;;;;13.63;100.00;100888.81;5004997;28;20287;-52
2022/10/25 07:16:16;;;;;;;2.38;1.20;;;;;;;13.56;100.00;100895.06;5012940;28;20312;-52
2022/10/25 07:18:43;;;;;;;7.85;1.63;;;;;;;13.57;100.00;100888.88;5003526;28;20248;-53
2022/10/25 07:21:20;;;;;;;3.10;1.60;;;;;;;13.55;100.00;100891.53;5020811;28;20244;-53
2022/10/25 07:23:49;;;;;;;2.45;1.50;;;;;;;13.43;100.00;100896.94;5012645;28;20247;-52
2022/10/25 07:26:17;;;;;;;9.70;2.00;;;;;;;13.32;100.00;100897.03;5022616;28;20224;-53
2022/10/25 07:28:45;;;;;;;14.70;9.13;;;;;;;13.25;100.00;100899.75;5023607;28;20790;-52
2022/10/25 07:31:13;;;;;;;3.60;2.55;;;;;;;13.21;100.00;100906.78;5022875;28;20238;-53
2022/10/25 07:33:50;;;;;;;3.97;2.10;;;;;;;13.17;100.00;100907.72;5018932;28;20316;-53
2022/10/25 07:36:17;;;;;;;8.68;2.65;;;;;;;13.14;100.00;100905.09;5019942;28;20250;-52
2022/10/25 07:38:44;;;;;;;4.30;1.67;;;;;;;13.22;100.00;100910.28;5022824;28;20232;-54
2022/10/25 07:41:12;;;;;;;2.05;1.33;;;;;;;13.12;100.00;100910.34;5009454;28;20279;-54
2022/10/25 07:43:39;;;;;;;3.22;2.10;;;;;;;13.07;100.00;100906.03;5021874;28;20251;-55
2022/10/25 07:46:14;;;;;;;2.00;1.50;;;;;;;13.01;100.00;100911.34;5020504;28;20241;-54
2022/10/25 07:48:41;;;;;;;3.08;1.92;;;;;;;13.03;100.00;100906.94;5017539;28;20231;-55
2022/10/25 07:51:10;;;;;;;4.32;2.45;;;;;;;12.90;100.00;100912.31;5020726;28;20765;-54
2022/10/25 07:53:37;;;;;;;5.85;2.00;;;;;;;12.85;100.00;100913.25;5023586;28;20255;-54
2022/10/25 07:56:04;;;;;;;4.63;1.80;;;;;;;12.80;100.00;100921.16;5021539;28;20233;-54
2022/10/25 07:58:32;;;;;;;5.97;2.50;;;;;;;12.80;100.00;100921.16;5019890;28;21224;-55
2022/10/25 08:01:03;;;;;;;6.40;2.25;;;;;;;12.74;100.00;100918.59;5022785;28;20235;-53
2022/10/25 08:03:30;;;;;;;3.67;3.38;;;;;;;12.68;100.00;100915.13;5021742;28;20247;-54
2022/10/25 08:05:57;;;;;;;4.55;2.28;;;;;;;12.75;100.00;100915.06;5018581;28;20233;-54
2022/10/25 08:08:24;;;;;;;8.18;3.00;;;;;;;12.69;100.00;100912.47;5003418;28;20229;-54
2022/10/25 08:10:51;;;;;;;4.50;2.75;;;;;;;12.64;100.00;100916.91;5004769;28;20230;-55
2022/10/25 08:13:28;;;;;;;3.92;2.15;;;;;;;12.69;100.00;100923.00;4993973;28;20922;-54
2022/10/25 08:16:05;;;;;;;3.20;2.20;;;;;;;12.80;100.00;100920.28;4987268;28;20237;-52
2022/10/25 08:18:33;;;;;;;3.45;2.08;;;;;;;12.93;100.00;100921.09;4993001;28;20236;-52
2022/10/25 08:21:16;;;;;;;3.90;2.35;;;;;;;12.92;100.00;100930.75;4997751;28;20221;-51
2022/10/25 08:23:43;;;;;;;4.03;2.10;;;;;;;12.85;100.00;100927.28;5016250;28;20260;-52
2022/10/25 08:26:09;;;;;;;5.38;2.00;;;;;;;12.82;100.00;100924.69;5015665;28;20243;-53
2022/10/25 08:28:36;;;;;;;2.85;1.98;;;;;;;12.84;100.00;100922.88;5020482;28;20240;-52
2022/10/25 08:31:04;;;;;;;1.90;1.70;;;;;;;12.79;100.00;100922.06;5018510;28;20600;-54
2022/10/25 08:33:32;;;;;;;7.57;2.70;;;;;;;12.79;100.00;100923.81;5015647;28;21209;-53
2022/10/25 08:36:02;;;;;;;2.60;1.98;;;;;;;12.80;100.00;100921.16;5016134;28;20233;-53
2022/10/25 08:38:29;;;;;;;1.73;1.42;;;;;;;12.85;100.00;100932.56;5012942;28;20278;-53
2022/10/25 08:41:04;;;;;;;5.55;2.25;;;;;;;12.96;100.00;100926.34;5020612;28;20323;-53
2022/10/25 08:44:15;;;;;;;5.07;2.13;;;;;;;12.97;100.00;100930.72;5014918;28;20784;-53
2022/10/25 08:46:48;;;;;;;13.70;8.93;;;;;;;12.89;100.00;100941.31;4997764;28;20243;-56
2022/10/25 08:49:20;;;;;;;6.78;2.83;;;;;;;12.89;100.00;100934.28;5017864;28;20754;-53
2022/10/25 08:51:49;;;;;;;7.15;2.33;;;;;;;12.85;100.00;100935.19;5015882;28;20277;-52
2022/10/25 08:54:24;;;;;;;3.45;2.55;;;;;;;12.98;100.00;100940.38;5018402;28;20247;-53
2022/10/25 08:56:53;;;;;;;4.72;2.60;;;;;;;13.11;100.00;100942.03;5023456;28;20235;-52
2022/10/25 08:59:28;;;;;;;7.13;2.17;;;;;;;13.32;100.00;100935.72;5001522;28;20237;-52
2022/10/25 09:01:58;;;;;;;5.95;1.98;;;;;;;13.63;100.00;100938.06;5008340;28;20307;-53
2022/10/25 09:04:34;;;;;;;4.32;2.20;;;;;;;13.61;100.00;100943.34;5004317;28;20228;-53
2022/10/25 09:07:09;;;;;;;2.03;1.83;;;;;;;13.74;100.00;100944.09;5013313;28;20229;-52
2022/10/25 09:09:41;;;;;;;4.80;1.60;;;;;;;13.79;100.00;100935.25;5018301;28;20239;-52
2022/10/25 09:12:17;;;;;;;2.95;2.05;;;;;;;13.87;100.00;100936.94;5014119;28;20232;-53
2022/10/25 09:14:46;;;;;;;7.00;1.65;;;;;;;13.95;100.00;100943.88;5005381;28;20674;-53
2022/10/25 09:17:18;;;;;;;4.32;1.90;;;;;;;13.95;100.00;100945.63;5018000;28;20228;-53
2022/10/25 09:22:44;;;;;;;4.07;2.08;;;;;;;14.02;100.00;100950.81;5023276;28;20248;-52
2022/10/25 09:25:20;;;;;;;3.50;1.77;;;;;;;14.09;100.00;100952.50;5027728;28;20236;-52
2022/10/25 09:27:51;;;;;;;5.88;2.22;;;;;;;14.13;100.00;100950.69;5013822;28;20319;-52
2022/10/25 09:30:17;;;;;;;3.88;2.20;;;;;;;14.15;100.00;100956.84;5019805;28;20232;-53
2022/10/25 09:32:52;;;;;;;8.95;2.55;;;;;;;14.26;100.00;100954.06;5027779;28;20252;-54
2022/10/25 09:35:24;;;;;;;2.55;1.67;;;;;;;14.50;100.00;100963.47;5021851;28;20314;-52
2022/10/25 09:37:53;;;;;;;9.48;2.83;;;;;;;14.59;100.00;100967.75;5026881;28;20228;-52
2022/10/25 09:40:21;;;;;;;4.07;1.60;;;;;;;14.59;100.00;100968.63;5026901;28;20312;-52
2022/10/25 09:42:50;;;;;;;7.13;2.88;;;;;;;14.73;100.00;100960.50;5021853;28;20239;-53
2022/10/25 09:45:21;;;;;;;6.55;1.80;;;;;;;14.79;100.00;100966.56;5023422;28;20229;-53
2022/10/25 09:47:54;;;;;;;6.40;2.42;;;;;;;14.81;100.00;100969.19;5017647;28;20241;-53
2022/10/25 09:50:24;;;;;;;6.88;1.83;;;;;;;14.84;100.00;100965.63;5006958;28;20232;-53
2022/10/25 09:52:58;;;;;;;4.25;2.03;;;;;;;14.83;100.00;100969.16;5020845;28;20243;-51
2022/10/25 09:55:36;;;;;;;5.00;1.77;;;;;;;14.91;100.00;100977.84;5022363;28;20224;-52
2022/10/25 09:58:06;;;;;;;4.88;1.73;;;;;;;14.94;100.00;100991.03;5002549;28;20314;-52
2022/10/25 10:00:33;;;;;;;6.68;2.42;;;;;;;14.87;100.00;100982.31;5018292;28;20296;-53
2022/10/25 10:03:01;;;;;;;6.55;1.63;;;;;;;14.94;100.00;100980.47;5015252;28;20244;-51
2022/10/25 10:05:28;;;;;;;6.00;2.40;;;;;;;14.92;100.00;100983.13;5023866;28;20240;-52
2022/10/25 10:07:56;;;;;;;4.18;1.80;;;;;;;14.86;100.00;100988.50;5020820;28;20236;-52
2022/10/25 10:10:25;;;;;;;7.60;2.67;;;;;;;14.84;100.00;100984.13;5024281;28;20243;-53
2022/10/25 10:12:56;;;;;;;4.18;2.08;;;;;;;14.82;100.00;100988.59;5025726;28;20233;-52
2022/10/25 10:15:25;;;;;;;3.28;2.33;;;;;;;14.84;100.00;100992.06;5024523;28;20236;-51
2022/10/25 10:18:21;;;;;;;5.22;2.35;;;;;;;14.88;100.00;100991.13;5023153;28;20236;-51
2022/10/25 10:20:56;;;;;;;1.92;1.50;;;;;;;14.86;100.00;100995.56;5015377;28;22256;-53
2022/10/25 10:23:23;;;;;;;2.38;1.65;;;;;;;14.92;100.00;101006.06;5017843;28;20429;-52
2022/10/25 10:25:49;;;;;;;8.18;2.22;;;;;;;14.94;100.00;101001.59;5024612;28;20734;-52
2022/10/25 10:28:16;;;;;;;4.28;2.20;;;;;;;15.01;100.00;101003.25;5025444;28;20236;-53
2022/10/25 10:30:42;;;;;;;2.55;1.80;;;;;;;14.89;100.00;101006.97;5020009;28;20244;-52
2022/10/25 10:33:15;;;;;;;4.53;1.77;;;;;;;14.94;100.00;101006.91;5018810;28;20245;-53
2022/10/25 10:35:43;;;;;;;3.30;1.83;;;;;;;14.97;100.00;101007.72;5019026;28;20259;-51
2022/10/25 10:38:22;;;;;;;4.35;2.10;;;;;;;15.03;100.00;101001.47;5024759;28;20236;-53
2022/10/25 10:40:54;;;;;;;5.10;2.30;;;;;;;15.01;100.00;100997.97;5022093;28;20240;-53
2022/10/25 10:43:29;;;;;;;2.97;1.60;;;;;;;15.05;100.00;101004.97;5017103;28;20623;-52
2022/10/25 10:46:01;;;;;;;6.22;2.13;;;;;;;15.05;100.00;101010.25;5007266;28;20240;-52
2022/10/25 10:48:33;;;;;;;5.75;2.58;;;;;;;15.03;100.00;101007.63;5022639;28;20255;-52
2022/10/25 10:51:01;;;;;;;3.90;2.00;;;;;;;15.00;100.00;101004.16;5012549;28;20239;-52
2022/10/25 10:53:31;;;;;;;3.65;1.73;;;;;;;15.03;100.00;101012.06;4999030;28;20320;-53
2022/10/25 10:55:58;;;;;;;4.40;2.45;;;;;;;15.04;100.00;101008.50;5021400;28;20235;-52
2022/10/25 10:58:27;;;;;;;3.25;2.30;;;;;;;15.17;100.00;101001.28;5023068;28;20312;-53
2022/10/25 11:00:57;;;;;;;6.30;2.97;;;;;;;15.18;100.00;101006.53;5025098;28;20232;-53
2022/10/25 11:03:49;;;;;;;3.05;1.70;;;;;;;15.27;100.00;101006.38;5020574;28;20288;-53
2022/10/25 11:06:30;;;;;;;7.10;1.80;;;;;;;15.42;100.00;101007.03;5019095;28;20256;-52
2022/10/25 11:09:23;;;;;;;4.90;1.95;;;;;;;15.47;100.00;101008.69;5003775;28;21366;-53
2022/10/25 11:12:07;;;;;;;4.50;2.67;;;;;;;15.58;100.00;101008.50;5016860;28;20224;-52
2022/10/25 11:14:34;;;;;;;6.50;2.60;;;;;;;15.71;100.00;101012.72;5025365;28;20248;-52
2022/10/25 11:17:02;;;;;;;5.13;2.45;;;;;;;15.60;100.00;101000.56;5024751;28;20229;-52
2022/10/25 11:20:03;;;;;;;6.57;2.70;;;;;;;15.59;100.00;101017.34;5023744;28;20243;-52
2022/10/25 11:22:52;;;;;;;5.63;2.17;;;;;;;15.56;100.00;101010.31;5009518;28;20239;-52
2022/10/25 11:25:27;;;;;;;7.30;2.53;;;;;;;15.50;100.00;101010.41;5021240;28;22077;-53
2022/10/25 11:28:06;;;;;;;2.55;2.15;;;;;;;15.49;100.00;101017.50;5021821;28;20835;-52
2022/10/25 11:30:36;;;;;;;5.47;2.28;;;;;;;15.64;100.00;101004.88;5016882;28;20237;-52
2022/10/25 11:33:20;;;;;;;18.38;12.98;;;;;;;15.64;100.00;101008.41;5022125;28;20240;-53
2022/10/25 11:36:28;;;;;;;3.85;2.90;;;;;;;15.58;100.00;101013.78;5020217;28;20236;-53